Time;durP1;ratioP1;P1;durP2;ratioP2;P2;SDS_P1;SDS_P2;PMS_P1;PMS_P2;Temp;Humidity;BMP_temperature;BMP_pressure;BME280_temperature;BME280_humidity;BME280_pressure;Samples;Min_cycle;Max_cycle;Signal;HPM_P1;HPM_P2
2022/08/16 00:01:13;;;;;;;13.90;7.85;;;;;;;;;;5012554;28;20235;-16
2022/08/16 00:03:40;;;;;;;9.95;8.20;;;;;;;;;;5011971;28;20239;-15
2022/08/16 00:06:08;;;;;;;13.60;9.90;;;;;;;;;;5012837;28;20227;-16
2022/08/16 00:08:36;;;;;;;10.32;9.13;;;;;;;;;;5012557;28;20274;-15
2022/08/16 00:11:04;;;;;;;11.25;10.15;;;;;;;;;;5012631;28;20245;-16
2022/08/16 00:13:32;;;;;;;11.45;10.23;;;;;;;;;;5012015;28;20235;-16
2022/08/16 00:16:09;;;;;;;11.70;9.25;;;;;;;;;;5012360;28;20753;-15
2022/08/16 00:18:57;;;;;;;14.60;9.88;;;;;;;;;;5013148;28;20290;-16
2022/08/16 00:21:24;;;;;;;13.45;8.93;;;;;;;;;;5012986;28;20258;-16
2022/08/16 00:23:55;;;;;;;15.85;8.38;;;;;;;;;;5012506;28;20245;-16
2022/08/16 00:26:22;;;;;;;9.35;8.15;;;;;;;;;;5013019;28;20229;-16
2022/08/16 00:29:04;;;;;;;15.15;8.68;;;;;;;;;;5013306;28;21606;-16
2022/08/16 00:31:33;;;;;;;9.27;8.38;;;;;;;;;;5012522;28;20698;-16
2022/08/16 00:34:21;;;;;;;12.00;8.63;;;;;;;;;;5012777;28;20942;-16
2022/08/16 00:37:08;;;;;;;10.50;8.98;;;;;;;;;;5011618;28;20765;-16
2022/08/16 00:39:35;;;;;;;10.38;7.72;;;;;;;;;;5011671;28;20228;-16
2022/08/16 00:42:05;;;;;;;9.48;8.40;;;;;;;;;;5012166;28;20246;-15
2022/08/16 00:44:36;;;;;;;12.43;8.68;;;;;;;;;;5012068;28;20710;-16
2022/08/16 00:47:07;;;;;;;9.50;8.07;;;;;;;;;;5011514;28;20228;-16
2022/08/16 00:49:34;;;;;;;11.65;9.50;;;;;;;;;;5011957;28;20246;-15
2022/08/16 00:52:10;;;;;;;13.10;9.32;;;;;;;;;;5012053;28;20324;-16
2022/08/16 00:54:56;;;;;;;9.90;8.73;;;;;;;;;;5011882;28;20224;-16
2022/08/16 00:57:24;;;;;;;11.40;9.13;;;;;;;;;;5011851;28;20235;-16
2022/08/16 00:59:51;;;;;;;9.65;8.52;;;;;;;;;;5011739;28;20334;-16
2022/08/16 01:02:27;;;;;;;14.02;9.25;;;;;;;;;;5012125;28;20242;-15
2022/08/16 01:04:58;;;;;;;14.20;9.05;;;;;;;;;;5011164;28;20251;-15
2022/08/16 01:07:38;;;;;;;10.38;9.10;;;;;;;;;;5012650;28;20236;-16
2022/08/16 01:10:18;;;;;;;12.18;9.27;;;;;;;;;;5010550;28;20290;-16
2022/08/16 01:12:45;;;;;;;13.73;10.10;;;;;;;;;;5010604;28;20706;-15
2022/08/16 01:15:14;;;;;;;10.98;9.80;;;;;;;;;;5010149;28;20223;-16
2022/08/16 01:17:43;;;;;;;10.10;9.10;;;;;;;;;;5010591;28;20236;-16
2022/08/16 01:20:10;;;;;;;13.55;10.23;;;;;;;;;;5011213;28;20247;-15
2022/08/16 01:22:58;;;;;;;13.45;9.82;;;;;;;;;;5010932;28;20318;-16
2022/08/16 01:25:28;;;;;;;19.38;9.98;;;;;;;;;;5011100;28;20835;-15
2022/08/16 01:28:04;;;;;;;13.23;9.95;;;;;;;;;;5011355;28;20234;-16
2022/08/16 01:30:32;;;;;;;16.40;10.25;;;;;;;;;;5010414;28;20718;-16
2022/08/16 01:33:03;;;;;;;11.57;9.77;;;;;;;;;;5011322;28;20228;-16
2022/08/16 01:35:43;;;;;;;11.65;9.38;;;;;;;;;;5011441;28;20223;-16
2022/08/16 01:38:14;;;;;;;11.85;10.40;;;;;;;;;;5011085;28;20612;-16
2022/08/16 01:40:47;;;;;;;12.82;10.30;;;;;;;;;;5010555;28;20301;-16
2022/08/16 01:43:14;;;;;;;17.10;10.88;;;;;;;;;;5011180;28;20239;-16
2022/08/16 01:45:42;;;;;;;14.63;10.63;;;;;;;;;;5011182;28;20231;-16
2022/08/16 01:48:09;;;;;;;13.68;10.88;;;;;;;;;;5011207;28;20838;-16
2022/08/16 01:50:46;;;;;;;12.73;11.15;;;;;;;;;;5011015;28;20239;-16
2022/08/16 01:53:34;;;;;;;13.05;11.75;;;;;;;;;;5011225;28;20238;-15
2022/08/16 01:56:03;;;;;;;13.55;11.02;;;;;;;;;;5010470;28;21032;-15
2022/08/16 01:58:30;;;;;;;13.60;12.02;;;;;;;;;;5010952;28;20362;-15
2022/08/16 02:00:58;;;;;;;14.60;11.65;;;;;;;;;;5010791;28;20239;-16
2022/08/16 02:03:25;;;;;;;14.23;11.02;;;;;;;;;;5010690;28;20699;-16
2022/08/16 02:05:53;;;;;;;12.25;10.85;;;;;;;;;;5010854;28;20235;-16
2022/08/16 02:08:20;;;;;;;11.85;10.57;;;;;;;;;;5010885;28;20999;-16
2022/08/16 02:11:01;;;;;;;12.32;9.73;;;;;;;;;;5010682;28;20243;-16
2022/08/16 02:13:29;;;;;;;11.68;10.57;;;;;;;;;;5009024;28;20705;-16
2022/08/16 02:15:59;;;;;;;12.40;11.00;;;;;;;;;;5010830;28;21092;-16
2022/08/16 02:18:27;;;;;;;11.07;9.88;;;;;;;;;;5010608;28;20851;-16
2022/08/16 02:20:55;;;;;;;12.38;10.95;;;;;;;;;;5009882;28;20239;-16
2022/08/16 02:23:25;;;;;;;15.15;10.40;;;;;;;;;;5009121;28;20248;-15
2022/08/16 02:25:56;;;;;;;12.95;10.27;;;;;;;;;;5004373;28;20227;-16
2022/08/16 02:28:26;;;;;;;12.02;10.32;;;;;;;;;;5009990;28;20227;-15
2022/08/16 02:30:55;;;;;;;11.05;9.95;;;;;;;;;;5010391;28;20262;-15
2022/08/16 02:33:22;;;;;;;11.90;10.70;;;;;;;;;;5010538;28;20286;-16
2022/08/16 02:36:10;;;;;;;14.52;11.27;;;;;;;;;;5009851;28;20691;-16
2022/08/16 02:38:57;;;;;;;12.90;10.60;;;;;;;;;;5013005;28;20663;-15
2022/08/16 02:41:25;;;;;;;16.75;10.85;;;;;;;;;;5013622;28;20725;-16
2022/08/16 02:43:52;;;;;;;12.52;9.70;;;;;;;;;;5014084;28;20947;-16
2022/08/16 02:46:21;;;;;;;14.32;10.32;;;;;;;;;;5012941;28;20282;-16
2022/08/16 02:48:59;;;;;;;13.38;11.02;;;;;;;;;;5014307;28;20762;-15
2022/08/16 02:51:28;;;;;;;14.73;10.88;;;;;;;;;;5013701;28;20270;-16
2022/08/16 02:53:57;;;;;;;12.38;11.07;;;;;;;;;;5013577;28;20240;-16
2022/08/16 02:56:24;;;;;;;12.23;10.93;;;;;;;;;;5013915;28;20227;-15
2022/08/16 02:58:58;;;;;;;13.25;11.07;;;;;;;;;;5018283;28;20246;-16
2022/08/16 03:01:31;;;;;;;14.27;10.68;;;;;;;;;;5013341;28;20310;-15
2022/08/16 03:04:04;;;;;;;12.00;10.80;;;;;;;;;;5013793;28;20326;-16
2022/08/16 03:06:51;;;;;;;13.38;11.93;;;;;;;;;;5013665;28;20242;-16
2022/08/16 03:09:23;;;;;;;13.85;11.80;;;;;;;;;;5013460;28;20227;-16
2022/08/16 03:11:51;;;;;;;12.50;10.90;;;;;;;;;;5013969;28;20223;-15
2022/08/16 03:14:18;;;;;;;13.25;11.27;;;;;;;;;;5014506;28;20227;-15
2022/08/16 03:16:52;;;;;;;13.13;10.77;;;;;;;;;;5014073;28;20920;-15
2022/08/16 03:19:27;;;;;;;13.32;11.93;;;;;;;;;;5013834;28;20243;-15
2022/08/16 03:22:15;;;;;;;13.73;11.00;;;;;;;;;;5014015;28;20231;-15
2022/08/16 03:24:54;;;;;;;12.75;10.88;;;;;;;;;;5014011;28;20243;-15
2022/08/16 03:27:24;;;;;;;12.57;10.85;;;;;;;;;;5013883;28;20244;-16
2022/08/16 03:29:57;;;;;;;12.52;11.23;;;;;;;;;;5014191;28;20228;-16
2022/08/16 03:32:26;;;;;;;13.02;10.85;;;;;;;;;;5013658;28;20246;-16
2022/08/16 03:34:53;;;;;;;13.77;11.80;;;;;;;;;;5014345;28;20238;-16
2022/08/16 03:37:20;;;;;;;12.63;11.35;;;;;;;;;;5013153;28;20242;-16
2022/08/16 03:39:48;;;;;;;11.88;10.50;;;;;;;;;;5013647;28;20289;-16
2022/08/16 03:42:23;;;;;;;12.05;10.85;;;;;;;;;;5008742;28;20313;-15
2022/08/16 03:44:50;;;;;;;14.25;10.77;;;;;;;;;;4995251;28;20926;-15
2022/08/16 03:47:30;;;;;;;14.18;11.57;;;;;;;;;;5000337;28;20315;-16
2022/08/16 03:50:01;;;;;;;12.48;11.23;;;;;;;;;;5001605;28;20239;-16
2022/08/16 03:52:29;;;;;;;11.93;10.82;;;;;;;;;;5002294;28;20228;-16
2022/08/16 03:54:58;;;;;;;11.32;10.23;;;;;;;;;;4995359;28;21157;-16
2022/08/16 03:57:26;;;;;;;12.75;11.00;;;;;;;;;;4995219;28;20229;-15
2022/08/16 04:00:11;;;;;;;13.77;11.35;;;;;;;;;;5012275;28;20239;-16
2022/08/16 04:03:01;;;;;;;11.82;10.55;;;;;;;;;;4996060;28;20227;-16
2022/08/16 04:05:31;;;;;;;15.23;11.32;;;;;;;;;;5004197;28;20246;-16
2022/08/16 04:07:58;;;;;;;11.90;10.80;;;;;;;;;;5009445;28;20244;-16
2022/08/16 04:10:46;;;;;;;11.82;10.48;;;;;;;;;;5012798;28;20231;-15
2022/08/16 04:13:17;;;;;;;12.50;10.65;;;;;;;;;;5009629;28;20342;-16
2022/08/16 04:16:05;;;;;;;11.65;10.40;;;;;;;;;;5003811;28;20239;-16
2022/08/16 04:18:35;;;;;;;16.65;10.65;;;;;;;;;;4996642;28;20236;-15
2022/08/16 04:21:03;;;;;;;13.63;10.20;;;;;;;;;;4992796;28;20376;-16
2022/08/16 04:23:30;;;;;;;14.77;12.43;;;;;;;;;;4998557;28;20757;-16
2022/08/16 04:25:58;;;;;;;16.33;12.73;;;;;;;;;;5011552;28;20279;-15
2022/08/16 04:28:28;;;;;;;12.52;11.02;;;;;;;;;;5009828;28;20239;-15
2022/08/16 04:31:15;;;;;;;15.05;12.95;;;;;;;;;;5004976;28;20667;-16
2022/08/16 04:33:44;;;;;;;16.27;12.93;;;;;;;;;;4997050;28;20722;-15
2022/08/16 04:36:17;;;;;;;15.35;13.25;;;;;;;;;;5003665;28;20234;-15
2022/08/16 04:38:46;;;;;;;14.57;13.18;;;;;;;;;;5012098;28;20235;-15
2022/08/16 04:41:16;;;;;;;20.27;12.65;;;;;;;;;;5012507;28;20247;-16
2022/08/16 04:43:43;;;;;;;16.77;13.43;;;;;;;;;;5012138;28;20235;-16
2022/08/16 04:46:15;;;;;;;14.65;13.15;;;;;;;;;;5011880;28;20247;-15
2022/08/16 04:49:06;;;;;;;16.60;14.77;;;;;;;;;;5002831;28;20242;-16
2022/08/16 04:51:34;;;;;;;20.92;13.93;;;;;;;;;;5011887;28;20258;-15
2022/08/16 04:54:02;;;;;;;15.27;13.05;;;;;;;;;;5001196;28;21018;-16
2022/08/16 04:56:30;;;;;;;18.35;12.93;;;;;;;;;;4998375;28;20668;-16
2022/08/16 04:58:57;;;;;;;16.65;13.40;;;;;;;;;;5007989;28;20236;-16
2022/08/16 05:01:24;;;;;;;17.85;14.82;;;;;;;;;;5004972;28;20234;-16
2022/08/16 05:04:13;;;;;;;17.85;14.45;;;;;;;;;;5002490;28;20259;-16
2022/08/16 05:06:46;;;;;;;17.83;15.07;;;;;;;;;;4992290;28;20333;-16
2022/08/16 05:09:13;;;;;;;19.05;14.50;;;;;;;;;;5001657;28;20291;-15
2022/08/16 05:11:42;;;;;;;17.95;15.15;;;;;;;;;;5006892;28;20235;-15
2022/08/16 05:14:10;;;;;;;19.25;14.82;;;;;;;;;;5003962;28;20223;-16
2022/08/16 05:16:46;;;;;;;18.88;15.30;;;;;;;;;;5005817;28;20238;-15
2022/08/16 05:19:19;;;;;;;17.85;15.95;;;;;;;;;;5008116;28;20243;-15
2022/08/16 05:21:47;;;;;;;18.90;15.60;;;;;;;;;;5004295;28;20243;-15
2022/08/16 05:24:17;;;;;;;16.23;14.52;;;;;;;;;;5004118;28;20265;-16
2022/08/16 05:26:51;;;;;;;17.42;14.85;;;;;;;;;;5009922;28;20297;-15
2022/08/16 05:29:18;;;;;;;17.30;14.88;;;;;;;;;;5006546;28;20283;-16
2022/08/16 05:31:46;;;;;;;16.95;15.15;;;;;;;;;;5011042;28;20295;-16
2022/08/16 05:34:21;;;;;;;17.92;16.00;;;;;;;;;;5011271;28;20227;-16
2022/08/16 05:36:49;;;;;;;18.60;15.13;;;;;;;;;;5011526;28;20239;-16
2022/08/16 05:39:17;;;;;;;18.40;15.02;;;;;;;;;;5011400;28;20996;-15
2022/08/16 05:41:46;;;;;;;18.85;16.35;;;;;;;;;;5011179;28;20234;-15
2022/08/16 05:44:17;;;;;;;21.42;16.60;;;;;;;;;;4996756;28;20238;-16
2022/08/16 05:46:51;;;;;;;20.45;16.00;;;;;;;;;;5006663;28;20301;-15
2022/08/16 05:49:18;;;;;;;22.00;16.33;;;;;;;;;;5007102;28;20242;-16
2022/08/16 05:51:51;;;;;;;22.52;15.85;;;;;;;;;;5006359;28;20239;-15
2022/08/16 05:54:18;;;;;;;21.15;16.98;;;;;;;;;;5007585;28;20784;-16
2022/08/16 05:56:51;;;;;;;19.50;16.17;;;;;;;;;;5005626;28;20294;-16
2022/08/16 05:59:18;;;;;;;17.02;15.23;;;;;;;;;;5004414;28;20264;-15
2022/08/16 06:01:49;;;;;;;21.17;16.98;;;;;;;;;;5006665;28;20753;-15
2022/08/16 06:04:16;;;;;;;19.35;16.13;;;;;;;;;;5004795;28;20315;-15
2022/08/16 06:07:05;;;;;;;22.75;16.85;;;;;;;;;;5004479;28;20251;-15
2022/08/16 06:09:35;;;;;;;19.13;16.67;;;;;;;;;;5005154;28;20362;-15
2022/08/16 06:12:10;;;;;;;17.48;15.68;;;;;;;;;;5007119;28;20303;-16
2022/08/16 06:14:37;;;;;;;20.33;16.38;;;;;;;;;;5005633;28;20232;-16
2022/08/16 06:17:06;;;;;;;18.08;16.17;;;;;;;;;;5006317;28;21095;-16
2022/08/16 06:19:33;;;;;;;19.38;16.83;;;;;;;;;;5003705;28;20699;-16
2022/08/16 06:22:02;;;;;;;22.17;17.65;;;;;;;;;;5007085;28;20729;-16
2022/08/16 06:24:30;;;;;;;21.80;16.45;;;;;;;;;;5003960;28;20391;-16
2022/08/16 06:27:18;;;;;;;22.42;17.38;;;;;;;;;;4999081;28;20250;-16
2022/08/16 06:29:47;;;;;;;23.88;18.70;;;;;;;;;;5002862;28;20232;-16
2022/08/16 06:32:16;;;;;;;25.15;18.25;;;;;;;;;;5010282;28;20267;-16
2022/08/16 06:34:54;;;;;;;25.25;18.55;;;;;;;;;;4996538;28;20235;-16
2022/08/16 06:37:29;;;;;;;24.52;18.50;;;;;;;;;;5010433;28;20242;-16
2022/08/16 06:40:06;;;;;;;20.75;18.50;;;;;;;;;;5010597;28;20325;-14
2022/08/16 06:42:39;;;;;;;29.23;19.50;;;;;;;;;;5010309;28;20233;-15
2022/08/16 06:45:14;;;;;;;21.67;19.48;;;;;;;;;;5010060;28;20235;-15
2022/08/16 06:47:42;;;;;;;23.50;20.42;;;;;;;;;;5010436;28;20330;-16
2022/08/16 06:50:22;;;;;;;28.30;20.75;;;;;;;;;;5010015;28;20294;-16
2022/08/16 06:52:56;;;;;;;23.10;20.10;;;;;;;;;;5006648;28;20239;-16
2022/08/16 06:55:28;;;;;;;23.40;20.52;;;;;;;;;;5007653;28;20235;-16
2022/08/16 06:58:01;;;;;;;24.35;20.38;;;;;;;;;;5000970;28;20239;-16
2022/08/16 07:00:34;;;;;;;24.10;21.00;;;;;;;;;;5006188;28;20794;-16
2022/08/16 07:03:04;;;;;;;24.83;20.67;;;;;;;;;;5003085;28;20228;-16
2022/08/16 07:05:51;;;;;;;21.95;19.65;;;;;;;;;;5004641;28;20236;-16
2022/08/16 07:08:20;;;;;;;28.50;20.35;;;;;;;;;;4999424;28;20255;-16
2022/08/16 07:10:48;;;;;;;19.77;17.65;;;;;;;;;;5004426;28;20227;-16
2022/08/16 07:13:16;;;;;;;21.85;19.55;;;;;;;;;;5008702;28;20231;-16
2022/08/16 07:16:04;;;;;;;22.95;20.27;;;;;;;;;;5007800;28;20239;-17
2022/08/16 07:18:31;;;;;;;20.92;17.48;;;;;;;;;;5007043;28;20223;-17
2022/08/16 07:20:59;;;;;;;22.00;19.70;;;;;;;;;;5001670;28;20234;-17
2022/08/16 07:23:28;;;;;;;22.50;18.92;;;;;;;;;;5009619;28;20322;-16
2022/08/16 07:26:06;;;;;;;21.95;18.92;;;;;;;;;;5012251;28;20321;-17
2022/08/16 07:28:34;;;;;;;23.40;18.50;;;;;;;;;;5011006;28;20239;-16
2022/08/16 07:31:02;;;;;;;25.08;17.95;;;;;;;;;;5012842;28;20310;-17
2022/08/16 07:33:29;;;;;;;21.02;18.75;;;;;;;;;;5009576;28;20294;-16
2022/08/16 07:36:17;;;;;;;19.45;17.45;;;;;;;;;;5009845;28;20231;-17
2022/08/16 07:38:48;;;;;;;19.83;17.73;;;;;;;;;;5000838;28;20283;-16
2022/08/16 07:41:17;;;;;;;23.38;17.88;;;;;;;;;;5007483;28;20291;-17
2022/08/16 07:43:45;;;;;;;21.20;17.27;;;;;;;;;;5010143;28;20234;-17
2022/08/16 07:46:14;;;;;;;24.30;18.27;;;;;;;;;;5013217;28;20601;-16
2022/08/16 07:49:01;;;;;;;26.05;17.63;;;;;;;;;;5009046;28;20255;-15
2022/08/16 07:51:31;;;;;;;21.25;18.00;;;;;;;;;;5006909;28;20982;-16
2022/08/16 07:54:01;;;;;;;19.80;17.45;;;;;;;;;;5008507;28;20710;-16
2022/08/16 07:56:38;;;;;;;20.55;18.45;;;;;;;;;;5000191;28;21018;-15
2022/08/16 07:59:05;;;;;;;22.33;17.55;;;;;;;;;;5006955;28;20227;-16
2022/08/16 08:01:33;;;;;;;23.90;16.98;;;;;;;;;;5008945;28;20231;-16
2022/08/16 08:04:01;;;;;;;19.17;16.37;;;;;;;;;;5005269;28;21175;-16
2022/08/16 08:06:31;;;;;;;19.00;16.52;;;;;;;;;;5004231;28;20443;-16
2022/08/16 08:08:58;;;;;;;21.10;17.20;;;;;;;;;;5000876;28;20236;-15
2022/08/16 08:11:26;;;;;;;18.02;16.15;;;;;;;;;;4998937;28;20601;-16
2022/08/16 08:13:58;;;;;;;22.38;18.42;;;;;;;;;;5008421;28;20235;-15
2022/08/16 08:16:30;;;;;;;23.83;17.38;;;;;;;;;;5011353;28;20235;-16
2022/08/16 08:18:58;;;;;;;17.35;15.45;;;;;;;;;;5007387;28;20235;-16
2022/08/16 08:21:28;;;;;;;21.45;18.45;;;;;;;;;;5009311;28;20251;-16
2022/08/16 08:24:16;;;;;;;19.92;17.92;;;;;;;;;;5007823;28;20262;-15
2022/08/16 08:26:44;;;;;;;16.23;14.52;;;;;;;;;;5010391;28;20254;-16
2022/08/16 08:29:18;;;;;;;21.58;15.70;;;;;;;;;;5009896;28;20776;-15
2022/08/16 08:31:51;;;;;;;20.33;17.90;;;;;;;;;;5011695;28;20227;-15
2022/08/16 08:34:19;;;;;;;18.90;16.90;;;;;;;;;;4999735;28;20716;-16
2022/08/16 08:36:48;;;;;;;19.50;15.55;;;;;;;;;;5007514;28;20239;-16
2022/08/16 08:39:20;;;;;;;16.67;14.88;;;;;;;;;;5002230;28;20231;-16
2022/08/16 08:41:47;;;;;;;19.35;17.27;;;;;;;;;;5008985;28;20691;-16
2022/08/16 08:44:15;;;;;;;19.77;17.67;;;;;;;;;;5006461;28;20234;-15
2022/08/16 08:46:58;;;;;;;22.48;18.02;;;;;;;;;;5011977;28;20227;-15
2022/08/16 08:49:27;;;;;;;18.70;16.50;;;;;;;;;;5009812;28;20713;-15
2022/08/16 08:52:14;;;;;;;18.52;15.07;;;;;;;;;;5008159;28;20238;-16
2022/08/16 08:55:04;;;;;;;18.02;14.02;;;;;;;;;;5001602;28;20243;-16
2022/08/16 08:57:37;;;;;;;17.17;13.93;;;;;;;;;;5011316;28;20684;-15
2022/08/16 09:00:05;;;;;;;16.42;13.98;;;;;;;;;;5007805;28;20238;-15
2022/08/16 09:02:42;;;;;;;16.50;14.40;;;;;;;;;;5005967;28;20242;-15
2022/08/16 09:05:11;;;;;;;18.20;15.10;;;;;;;;;;5006593;28;20318;-16
2022/08/16 09:07:42;;;;;;;17.73;14.50;;;;;;;;;;5008112;28;20698;-16
2022/08/16 09:10:27;;;;;;;18.40;14.93;;;;;;;;;;5005686;28;20231;-15
2022/08/16 09:12:55;;;;;;;18.58;14.05;;;;;;;;;;5005335;28;20239;-15
2022/08/16 09:15:23;;;;;;;20.90;15.23;;;;;;;;;;5006948;28;20236;-16
2022/08/16 09:17:55;;;;;;;16.40;12.82;;;;;;;;;;5004365;28;20236;-16
2022/08/16 09:20:24;;;;;;;13.02;11.70;;;;;;;;;;5007139;28;20247;-15
2022/08/16 09:22:52;;;;;;;18.27;14.27;;;;;;;;;;5008249;28;20247;-16
2022/08/16 09:25:20;;;;;;;16.60;12.25;;;;;;;;;;5009233;28;20234;-16
2022/08/16 09:27:59;;;;;;;14.20;12.23;;;;;;;;;;4997107;28;20252;-16
2022/08/16 09:30:30;;;;;;;17.27;13.65;;;;;;;;;;5007642;28;20741;-16
2022/08/16 09:33:10;;;;;;;16.10;12.75;;;;;;;;;;5003646;28;20238;-15
2022/08/16 09:35:38;;;;;;;16.33;12.10;;;;;;;;;;5007444;28;20275;-15
2022/08/16 09:38:10;;;;;;;13.65;11.63;;;;;;;;;;5000836;28;20232;-16
2022/08/16 09:40:38;;;;;;;15.57;11.63;;;;;;;;;;5005590;28;20235;-16
2022/08/16 09:43:10;;;;;;;13.73;12.38;;;;;;;;;;5007185;28;20322;-16
2022/08/16 09:45:57;;;;;;;18.63;12.13;;;;;;;;;;5006460;28;20243;-15
2022/08/16 09:48:27;;;;;;;15.25;12.18;;;;;;;;;;5008009;28;20721;-16
2022/08/16 09:51:11;;;;;;;15.35;11.80;;;;;;;;;;4996722;28;20243;-15
2022/08/16 09:53:38;;;;;;;14.85;10.15;;;;;;;;;;5016248;28;20237;-15
2022/08/16 09:56:08;;;;;;;12.68;11.40;;;;;;;;;;5005649;28;20680;-15
2022/08/16 09:58:37;;;;;;;16.00;12.40;;;;;;;;;;5007776;28;20707;-16
2022/08/16 10:01:25;;;;;;;13.13;11.75;;;;;;;;;;5008993;28;20235;-16
2022/08/16 10:03:56;;;;;;;15.05;11.15;;;;;;;;;;5006900;28;20874;-16
2022/08/16 10:06:29;;;;;;;15.25;9.52;;;;;;;;;;5007144;28;20234;-16
2022/08/16 10:09:00;;;;;;;11.38;9.65;;;;;;;;;;5010667;28;20246;-16
2022/08/16 10:14:18;;;;;;;15.88;9.52;;;;;;;;;;4995417;28;20238;-12
2022/08/16 10:16:52;;;;;;;9.73;8.13;;;;;;;;;;4996096;28;20274;-14
2022/08/16 10:19:29;;;;;;;11.38;8.20;;;;;;;;;;5002053;28;20702;-13
2022/08/16 10:21:58;;;;;;;10.38;9.18;;;;;;;;;;5009342;28;20243;-12
2022/08/16 10:24:31;;;;;;;13.10;9.35;;;;;;;;;;4998169;28;20240;-14
2022/08/16 10:26:58;;;;;;;9.77;8.88;;;;;;;;;;5010235;28;20239;-14
2022/08/16 10:29:46;;;;;;;9.75;7.18;;;;;;;;;;5009660;28;20243;-14
2022/08/16 10:32:27;;;;;;;14.00;8.63;;;;;;;;;;5001203;28;20710;-14
2022/08/16 10:35:00;;;;;;;9.00;7.60;;;;;;;;;;4997278;28;20322;-14
2022/08/16 10:37:28;;;;;;;11.75;8.25;;;;;;;;;;5007794;28;20228;-14
2022/08/16 10:40:09;;;;;;;9.93;7.60;;;;;;;;;;5010258;28;20235;-13
2022/08/16 10:42:57;;;;;;;9.18;7.60;;;;;;;;;;5010362;28;20239;-13
2022/08/16 10:45:26;;;;;;;8.93;7.00;;;;;;;;;;4997295;28;20427;-13
2022/08/16 10:47:53;;;;;;;11.65;6.72;;;;;;;;;;5010435;28;20974;-13
2022/08/16 10:50:31;;;;;;;11.90;7.20;;;;;;;;;;5009638;28;20231;-13
2022/08/16 10:52:59;;;;;;;9.60;7.20;;;;;;;;;;5010088;28;21022;-14
2022/08/16 10:55:32;;;;;;;8.38;6.85;;;;;;;;;;5010128;28;20232;-14
2022/08/16 10:58:12;;;;;;;9.85;7.53;;;;;;;;;;5010396;28;20322;-14
2022/08/16 11:00:43;;;;;;;10.50;7.20;;;;;;;;;;5013315;28;20393;-14
2022/08/16 11:03:12;;;;;;;11.30;6.78;;;;;;;;;;5014313;28;20242;-14
2022/08/16 11:06:01;;;;;;;9.38;6.15;;;;;;;;;;5013575;28;21047;-14
2022/08/16 11:08:33;;;;;;;9.00;6.80;;;;;;;;;;5014054;28;20326;-14
2022/08/16 11:11:02;;;;;;;11.50;6.50;;;;;;;;;;5013348;28;20259;-14
2022/08/16 11:13:39;;;;;;;8.38;6.47;;;;;;;;;;5004873;28;20322;-14
2022/08/16 11:16:27;;;;;;;7.35;6.65;;;;;;;;;;5010126;28;20882;-14
2022/08/16 11:19:15;;;;;;;7.80;6.57;;;;;;;;;;4997719;28;20340;-14
2022/08/16 11:21:44;;;;;;;11.07;6.60;;;;;;;;;;5010053;28;20236;-15
2022/08/16 11:24:31;;;;;;;7.88;6.30;;;;;;;;;;5009631;28;20246;-15
2022/08/16 11:27:10;;;;;;;11.38;7.05;;;;;;;;;;5010443;28;20231;-16
2022/08/16 11:29:48;;;;;;;8.88;6.85;;;;;;;;;;5004405;28;20789;-15
2022/08/16 11:32:16;;;;;;;7.43;6.47;;;;;;;;;;5004132;28;20239;-15
2022/08/16 11:34:56;;;;;;;9.27;6.60;;;;;;;;;;5000081;28;20357;-16
2022/08/16 11:37:43;;;;;;;12.23;7.07;;;;;;;;;;5009212;28;20374;-15
2022/08/16 11:40:31;;;;;;;11.05;6.55;;;;;;;;;;5007150;28;20229;-16
2022/08/16 11:43:00;;;;;;;8.32;6.50;;;;;;;;;;4996931;28;20242;-15
2022/08/16 11:45:27;;;;;;;10.07;6.85;;;;;;;;;;5001763;28;20329;-15
2022/08/16 11:48:00;;;;;;;8.77;6.50;;;;;;;;;;4997791;28;20240;-15
2022/08/16 11:50:27;;;;;;;8.05;6.63;;;;;;;;;;5001384;28;20243;-16
2022/08/16 11:52:56;;;;;;;8.25;5.82;;;;;;;;;;4996992;28;20232;-15
2022/08/16 11:55:23;;;;;;;7.13;6.32;;;;;;;;;;4999938;28;20621;-16
2022/08/16 11:57:51;;;;;;;7.55;5.65;;;;;;;;;;5006526;28;20232;-16
2022/08/16 12:00:23;;;;;;;9.38;5.97;;;;;;;;;;5009926;28;20228;-15
2022/08/16 12:03:11;;;;;;;10.40;5.85;;;;;;;;;;5004260;28;20239;-15
2022/08/16 12:05:39;;;;;;;8.70;6.45;;;;;;;;;;5001847;28;20281;-15
2022/08/16 12:08:09;;;;;;;6.55;5.97;;;;;;;;;;5001452;28;20228;-14
2022/08/16 12:10:38;;;;;;;8.20;6.15;;;;;;;;;;4999921;28;20334;-16
2022/08/16 12:13:06;;;;;;;6.78;6.18;;;;;;;;;;4997313;28;20239;-15
2022/08/16 12:15:36;;;;;;;10.40;5.85;;;;;;;;;;5001240;28;20271;-15
2022/08/16 12:18:04;;;;;;;10.57;6.28;;;;;;;;;;4997570;28;20786;-15
2022/08/16 12:20:34;;;;;;;8.73;5.65;;;;;;;;;;5007396;28;20590;-16
2022/08/16 12:23:01;;;;;;;6.90;5.45;;;;;;;;;;5011981;28;20254;-15
2022/08/16 12:25:30;;;;;;;6.13;5.38;;;;;;;;;;5012767;28;20232;-16
2022/08/16 12:27:58;;;;;;;17.67;6.55;;;;;;;;;;5012510;28;20286;-15
2022/08/16 12:30:30;;;;;;;7.15;6.28;;;;;;;;;;5012193;28;20322;-16
2022/08/16 12:33:05;;;;;;;8.18;5.63;;;;;;;;;;5011447;28;20298;-15
2022/08/16 12:35:33;;;;;;;8.43;5.78;;;;;;;;;;5012850;28;20279;-15
2022/08/16 12:38:00;;;;;;;7.32;5.85;;;;;;;;;;5012946;28;20227;-15
2022/08/16 12:40:49;;;;;;;8.35;5.70;;;;;;;;;;5008104;28;20433;-17
2022/08/16 12:43:21;;;;;;;6.78;5.22;;;;;;;;;;5003487;28;20330;-17
2022/08/16 12:45:50;;;;;;;6.32;5.13;;;;;;;;;;5004059;28;20295;-15
2022/08/16 12:51:05;;;;;;;7.25;5.68;;;;;;;;;;5006343;28;20306;-17
2022/08/16 12:53:40;;;;;;;6.88;5.50;;;;;;;;;;5010608;28;20233;-16
2022/08/16 12:56:10;;;;;;;7.47;5.32;;;;;;;;;;5003285;28;21215;-17
2022/08/16 12:58:37;;;;;;;7.53;5.70;;;;;;;;;;5005894;28;20227;-16
2022/08/16 13:01:17;;;;;;;7.47;5.72;;;;;;;;;;5003978;28;20242;-18
2022/08/16 13:03:45;;;;;;;7.47;5.60;;;;;;;;;;5009084;28;20354;-16
2022/08/16 13:06:12;;;;;;;7.25;5.90;;;;;;;;;;5007123;28;20258;-17
2022/08/16 13:08:46;;;;;;;7.93;5.70;;;;;;;;;;5003222;28;20231;-16
2022/08/16 13:11:15;;;;;;;5.97;5.35;;;;;;;;;;5008389;28;21032;-17
2022/08/16 13:13:44;;;;;;;7.47;6.40;;;;;;;;;;5007083;28;20966;-17
2022/08/16 13:16:11;;;;;;;9.38;6.03;;;;;;;;;;5009565;28;20274;-16
2022/08/16 13:18:47;;;;;;;9.93;6.32;;;;;;;;;;5005185;28;20254;-16
2022/08/16 13:21:20;;;;;;;7.93;6.85;;;;;;;;;;5017515;28;20272;-16
2022/08/16 13:23:50;;;;;;;10.80;6.22;;;;;;;;;;5015538;28;20305;-16
2022/08/16 13:26:22;;;;;;;7.10;6.40;;;;;;;;;;5012679;28;20235;-15
2022/08/16 13:28:50;;;;;;;11.60;6.35;;;;;;;;;;5023791;28;20240;-16
2022/08/16 13:31:17;;;;;;;6.38;5.80;;;;;;;;;;5017252;28;20243;-15
2022/08/16 13:33:45;;;;;;;9.75;6.10;;;;;;;;;;5020824;28;20246;-14
2022/08/16 13:36:12;;;;;;;9.20;6.00;;;;;;;;;;5008592;28;20258;-14
2022/08/16 13:39:00;;;;;;;9.38;6.00;;;;;;;;;;5015154;28;20239;-15
2022/08/16 13:41:29;;;;;;;8.57;6.30;;;;;;;;;;5009409;28;20281;-15
2022/08/16 13:43:56;;;;;;;7.38;5.93;;;;;;;;;;5004810;28;20236;-14
2022/08/16 13:46:25;;;;;;;10.18;5.93;;;;;;;;;;5005684;28;20228;-15
2022/08/16 13:48:54;;;;;;;6.55;5.90;;;;;;;;;;5008121;28;20235;-15
2022/08/16 13:51:22;;;;;;;8.15;6.28;;;;;;;;;;5008478;28;20255;-15
2022/08/16 13:53:51;;;;;;;6.82;6.00;;;;;;;;;;5012319;28;20231;-15
2022/08/16 13:56:26;;;;;;;8.38;5.57;;;;;;;;;;5003371;28;20238;-16
2022/08/16 13:59:06;;;;;;;13.10;6.38;;;;;;;;;;5017281;28;20231;-15
2022/08/16 14:01:46;;;;;;;18.50;5.95;;;;;;;;;;5014626;28;20226;-16
2022/08/16 14:04:22;;;;;;;11.80;5.90;;;;;;;;;;5009792;28;20282;-16
2022/08/16 14:06:53;;;;;;;13.52;6.20;;;;;;;;;;4999379;28;20707;-16
2022/08/16 14:09:21;;;;;;;8.30;5.32;;;;;;;;;;5001855;28;20943;-15
2022/08/16 14:11:48;;;;;;;11.23;5.80;;;;;;;;;;5003569;28;20595;-14
2022/08/16 14:14:21;;;;;;;7.50;5.63;;;;;;;;;;4999785;28;20231;-16
2022/08/16 14:16:56;;;;;;;10.98;5.90;;;;;;;;;;4996643;28;20244;-16
2022/08/16 14:19:23;;;;;;;7.30;5.80;;;;;;;;;;5002737;28;20239;-15
2022/08/16 14:21:54;;;;;;;8.25;5.80;;;;;;;;;;5000505;28;21060;-15
2022/08/16 14:24:40;;;;;;;6.20;5.60;;;;;;;;;;4999425;28;20298;-15
2022/08/16 14:27:11;;;;;;;9.93;5.78;;;;;;;;;;5004111;28;20248;-16
2022/08/16 14:29:43;;;;;;;11.48;6.22;;;;;;;;;;5004893;28;20243;-15
2022/08/16 14:32:10;;;;;;;8.77;6.32;;;;;;;;;;5005652;28;20238;-15
2022/08/16 14:34:53;;;;;;;6.93;5.88;;;;;;;;;;4997364;28;20886;-16
2022/08/16 14:37:22;;;;;;;10.40;6.07;;;;;;;;;;5005508;28;20294;-15
2022/08/16 14:39:49;;;;;;;9.00;5.82;;;;;;;;;;5003152;28;20244;-15
2022/08/16 14:42:18;;;;;;;6.60;5.85;;;;;;;;;;5005006;28;20232;-15
2022/08/16 14:44:47;;;;;;;9.05;6.40;;;;;;;;;;5005215;28;20242;-15
2022/08/16 14:47:16;;;;;;;8.95;6.57;;;;;;;;;;5007125;28;21078;-14
2022/08/16 14:49:43;;;;;;;9.48;6.05;;;;;;;;;;4998325;28;20247;-15
2022/08/16 14:52:12;;;;;;;11.57;6.25;;;;;;;;;;4998979;28;20721;-15
2022/08/16 14:54:41;;;;;;;8.32;6.00;;;;;;;;;;5001686;28;20235;-15
2022/08/16 14:57:11;;;;;;;11.43;6.05;;;;;;;;;;5000510;28;20266;-14
2022/08/16 14:59:38;;;;;;;11.00;6.22;;;;;;;;;;5009947;28;20247;-14
2022/08/16 15:02:14;;;;;;;8.57;6.25;;;;;;;;;;5008395;28;21068;-15